Colbert, WA (99005)

11:14 AM PST on February 19, 2017 (GMT -0800)
Little Spokane/Lantern Lane | | Change Station

Elev 1667 ft 47.80 °N, 117.38 °W | Updated 1 minute ago

Overcast
Overcast
39.2 °F
Feels Like 39 °F
N
0.0
Wind Variable Wind from SE
Gusts 0.0 mph

Today
High -- | Low -- °F
--% Chance of Precip.
Yesterday
High -- | Low -- °F
Precip. -- in
Pressure 29.58 in
Visibility 10.0 miles
Clouds Few 1300 ft
Scattered Clouds 7500 ft
Windchill 39 °F
Dew Point 35 °F
Humidity 86%
Rainfall 0.11 in
Snow Depth Not available.
6:47 AM 5:19 PM
Last Quarter, 41% visible
METAR KSFF 191853Z 09007KT 10SM FEW013 SCT075 04/01 A2955 RMK AO2 SLP015 T00390011
Pressure 29.58 in
Visibility 10.0 miles
Clouds Few 1300 ft
Scattered Clouds 7500 ft
Windchill 39 °F
Dew Point 35 °F
Humidity 86%
Rainfall 0.11 in
Snow Depth Not available.
6:47 AM 5:19 PM
Last Quarter, 41% visible
METAR KSFF 191853Z 09007KT 10SM FEW013 SCT075 04/01 A2955 RMK AO2 SLP015 T00390011

Get Your Daily Forecast Email!

Thanks for signing up!

Be on the lookout for a verification email in your inbox.

You'll start receiving the daily forecast at 8 AM.

×

10-Day Weather Forecast

Almanac

Astronomy

Feb. 19, 2017 Rise Set
Actual Time
Civil Twilight
Nautical Twilight
Astronomical Twilight
Moon
Length of Visible Light
Length of Day
Tomorrow will be .
, % of the Moon is Illuminated

Today's Extremes

State Highs State Lows

Community

WunderPhotos

Upload Photos

1,962,540 photos uploaded!

WunderBlog® & News

Nearby

Air Quality

  Air Quality AQ Index Pollutant
Not available.

Snow Depth

Station Depth Elevation

Earthquake Activity

City Distance Mag. Time & Date
Minimum magnitude displayed is 2.5.

Coastal Water Temperatures

Place Temperature

Stations

Nearby Weather Stations

Station Location Temp. Windchill Dew Point Humidity Wind Precip. Elev Updated Type
                   

Watches & Warnings

There are currently no watches in effect.